Terminal Aerodrome Forecast
Issued by NWS

Home | Current Version | Previous Version | Text Only | Print | Product List | Glossary On
Versions: 1 2 3 4 5 6 7 8 9 10 11 12 13 14 15 16 17 18 19
000
FTUS43 KILX 030500
TAFBMI
TAF
KBMI 030539Z 0306/0406 12009KT P6SM OVC120
     FM030700 13009KT P6SM OVC050
      TEMPO 0307/0308 -FZRAPL
     FM030800 14012KT 3SM -FZRAPL BR OVC035
     FM031100 15012KT 2SM -FZRA BR OVC007
     FM031600 19015G23KT 3SM -RA BR OVC012
     FM040100 27010KT P6SM OVC012=

USA.gov is the U.S. government's official web portal to all federal, state and local government web resources and services.